createdAt,value
2018-01-21T00:02:07.000Z,24.56
2018-01-21T00:12:07.000Z,24.49
2018-01-21T00:22:07.000Z,24.5
2018-01-21T00:32:07.000Z,24.4
2018-01-21T00:42:07.000Z,24.45
2018-01-21T00:52:07.000Z,24.39
2018-01-21T01:02:07.000Z,24.31
2018-01-21T01:12:07.000Z,24.38
2018-01-21T01:22:07.000Z,24.28
2018-01-21T01:32:07.000Z,24.2
2018-01-21T01:42:07.000Z,24.19
2018-01-21T01:52:07.000Z,24.19
2018-01-21T02:02:07.000Z,24.09
2018-01-21T02:12:07.000Z,24.01
2018-01-21T02:22:07.000Z,24
2018-01-21T02:32:07.000Z,23.88
2018-01-21T02:42:07.000Z,23.88
2018-01-21T02:52:07.000Z,23.81
2018-01-21T03:02:07.000Z,23.73
2018-01-21T03:12:07.000Z,23.65
2018-01-21T03:22:07.000Z,23.67
2018-01-21T03:32:07.000Z,23.62
2018-01-21T03:42:07.000Z,23.66
2018-01-21T03:52:07.000Z,23.51
2018-01-21T04:02:07.000Z,23.48
2018-01-21T04:12:07.000Z,23.46
2018-01-21T04:22:07.000Z,23.31
2018-01-21T04:32:08.000Z,23.29
2018-01-21T04:42:08.000Z,23.17
2018-01-21T04:52:08.000Z,23.26
2018-01-21T05:02:08.000Z,23.16
2018-01-21T05:12:08.000Z,23.19
2018-01-21T05:22:08.000Z,23.17
2018-01-21T05:32:08.000Z,23.16
2018-01-21T05:42:08.000Z,23.15
2018-01-21T05:52:08.000Z,23.14
2018-01-21T06:02:08.000Z,23.2
2018-01-21T06:12:08.000Z,23.24
2018-01-21T06:22:08.000Z,23.24
2018-01-21T06:32:08.000Z,23.24
2018-01-21T06:42:08.000Z,23.28
2018-01-21T06:52:08.000Z,23.28
2018-01-21T07:02:08.000Z,23.32
2018-01-21T07:12:08.000Z,23.33
2018-01-21T07:22:08.000Z,23.38
2018-01-21T07:32:08.000Z,23.44
2018-01-21T07:42:08.000Z,23.44
2018-01-21T07:52:09.000Z,23.49
2018-01-21T08:02:08.000Z,23.54
2018-01-21T08:12:08.000Z,23.56
2018-01-21T08:22:08.000Z,23.66
2018-01-21T08:32:08.000Z,23.56
2018-01-21T08:42:08.000Z,23.74
2018-01-21T08:52:08.000Z,23.78
2018-01-21T09:02:08.000Z,23.92
2018-01-21T09:12:08.000Z,23.97
2018-01-21T09:22:08.000Z,23.95
2018-01-21T09:32:08.000Z,23.92
2018-01-21T09:42:08.000Z,23.97
2018-01-21T09:52:08.000Z,23.94
2018-01-21T10:02:08.000Z,24
2018-01-21T10:12:08.000Z,24.59
2018-01-21T10:22:08.000Z,24.64
2018-01-21T10:32:09.000Z,24.5
2018-01-21T10:42:08.000Z,24.48
2018-01-21T10:52:08.000Z,24.41
2018-01-21T11:02:08.000Z,24.35
2018-01-21T11:12:08.000Z,24.33
2018-01-21T11:22:08.000Z,24.34
2018-01-21T11:32:08.000Z,24.33
2018-01-21T11:42:08.000Z,24.39
2018-01-21T11:52:08.000Z,24.53
2018-01-21T12:02:09.000Z,24.68
2018-01-21T12:22:08.000Z,24.51
2018-01-21T12:32:08.000Z,24.5
2018-01-21T12:42:08.000Z,24.53
2018-01-21T12:52:09.000Z,24.51
2018-01-21T13:02:09.000Z,24.49
2018-01-21T13:12:09.000Z,24.53
2018-01-21T13:22:09.000Z,24.61
2018-01-21T13:32:09.000Z,24.52
2018-01-21T13:42:09.000Z,24.51
2018-01-21T13:52:09.000Z,24.49
2018-01-21T14:02:09.000Z,24.54
2018-01-21T14:12:09.000Z,24.55
2018-01-21T14:22:09.000Z,24.54
2018-01-21T14:32:09.000Z,24.49
2018-01-21T14:42:09.000Z,24.56
2018-01-21T14:52:09.000Z,24.57
2018-01-21T15:02:09.000Z,24.59
2018-01-21T15:12:09.000Z,24.59
2018-01-21T15:22:09.000Z,24.61
2018-01-21T15:32:09.000Z,24.6
2018-01-21T15:42:09.000Z,24.48
2018-01-21T15:52:09.000Z,24.5
2018-01-21T16:02:09.000Z,24.5
2018-01-21T16:12:09.000Z,24.52
2018-01-21T16:22:09.000Z,24.57
2018-01-21T16:32:09.000Z,24.55
2018-01-21T16:42:09.000Z,24.64
2018-01-21T16:52:09.000Z,24.55
2018-01-21T17:02:09.000Z,24.61
2018-01-21T17:12:09.000Z,24.55
2018-01-21T17:22:09.000Z,24.5
2018-01-21T17:32:09.000Z,24.55
2018-01-21T17:42:09.000Z,24.4
2018-01-21T17:52:09.000Z,24.47
2018-01-21T18:02:09.000Z,24.54
2018-01-21T18:12:09.000Z,24.61
2018-01-21T18:22:09.000Z,24.69
2018-01-21T18:32:09.000Z,24.74
2018-01-21T18:42:09.000Z,24.76
2018-01-21T18:52:09.000Z,24.77
2018-01-21T19:02:09.000Z,24.76
2018-01-21T19:12:09.000Z,24.77
2018-01-21T19:22:09.000Z,24.76
2018-01-21T19:32:09.000Z,24.84
2018-01-21T19:42:09.000Z,24.91
2018-01-21T19:52:09.000Z,24.84
2018-01-21T20:02:09.000Z,24.76
2018-01-21T20:12:09.000Z,24.75
2018-01-21T20:22:09.000Z,24.81
2018-01-21T20:32:09.000Z,24.83
2018-01-21T20:42:09.000Z,24.75
2018-01-21T20:52:09.000Z,24.77
2018-01-21T21:02:10.000Z,24.74
2018-01-21T21:12:10.000Z,24.77
2018-01-21T21:22:10.000Z,24.73
2018-01-21T21:32:10.000Z,24.77
2018-01-21T21:42:10.000Z,24.75
2018-01-21T21:52:10.000Z,24.72
2018-01-21T22:02:10.000Z,24.75
2018-01-21T22:12:10.000Z,24.83
2018-01-21T22:22:10.000Z,24.81
2018-01-21T22:32:10.000Z,24.72
2018-01-21T22:42:12.000Z,24.71
2018-01-21T22:52:11.000Z,24.69
2018-01-21T23:02:10.000Z,24.63
2018-01-21T23:12:10.000Z,24.56
2018-01-21T23:22:10.000Z,24.55
2018-01-21T23:32:10.000Z,24.49
2018-01-21T23:42:10.000Z,24.41
2018-01-21T23:52:10.000Z,24.3
